Time;durP1;ratioP1;P1;durP2;ratioP2;P2;SDS_P1;SDS_P2;PMS_P1;PMS_P2;Temp;Humidity;BMP_temperature;BMP_pressure;BME280_temperature;BME280_humidity;BME280_pressure;Samples;Min_cycle;Max_cycle;Signal;HPM_P1;HPM_P2
2022/05/05 00:00:47;;;;;;;3.63;1.53;;;19.90;99.90;;;;;;5059694;28;20222;-92
2022/05/05 00:03:18;;;;;;;4.13;1.70;;;19.80;99.90;;;;;;5072666;28;20232;-91
2022/05/05 00:05:50;;;;;;;4.90;1.60;;;19.90;99.90;;;;;;5065275;28;20232;-91
2022/05/05 00:08:22;;;;;;;3.93;1.47;;;19.80;99.90;;;;;;5068962;28;20204;-92
2022/05/05 00:16:30;;;;;;;5.03;1.33;;;19.90;99.90;;;;;;5062449;28;20295;-92
2022/05/05 00:19:03;;;;;;;4.90;1.40;;;20.10;99.90;;;;;;5061758;28;20208;-92
2022/05/05 00:21:34;;;;;;;2.57;1.37;;;20.10;99.90;;;;;;5059367;28;20254;-91
2022/05/05 00:24:09;;;;;;;2.80;1.53;;;20.00;99.90;;;;;;5058880;28;20219;-91
2022/05/05 00:26:43;;;;;;;4.03;1.13;;;19.80;99.90;;;;;;5059240;28;20617;-91
2022/05/05 00:29:15;;;;;;;3.87;1.40;;;19.70;99.90;;;;;;5057897;28;20290;-91
2022/05/05 00:31:48;;;;;;;5.53;1.60;;;19.60;99.90;;;;;;5059896;28;20214;-91
2022/05/05 00:34:19;;;;;;;3.07;1.40;;;19.60;99.90;;;;;;5058119;28;20216;-91
2022/05/05 00:36:50;;;;;;;5.83;1.63;;;19.60;99.90;;;;;;5058763;28;20291;-91
2022/05/05 00:39:22;;;;;;;4.40;1.53;;;19.50;99.90;;;;;;5058096;28;20275;-91
2022/05/05 00:41:55;;;;;;;5.53;1.30;;;19.50;99.90;;;;;;5058468;28;20303;-91
2022/05/05 00:44:27;;;;;;;4.50;1.20;;;19.50;99.90;;;;;;5057511;28;20212;-91
2022/05/05 00:46:59;;;;;;;5.30;1.30;;;19.60;99.90;;;;;;5059079;28;20250;-90
2022/05/05 00:49:32;;;;;;;2.97;1.50;;;19.80;99.90;;;;;;5058144;28;20235;-91
2022/05/05 00:52:05;;;;;;;4.67;1.30;;;19.60;99.90;;;;;;5061150;28;20575;-92
2022/05/05 00:54:38;;;;;;;4.73;1.60;;;19.70;99.90;;;;;;5063283;28;20228;-93
2022/05/05 00:57:12;;;;;;;5.80;1.40;;;19.50;99.90;;;;;;5062285;28;20247;-93
2022/05/05 00:59:45;;;;;;;6.77;2.30;;;19.50;99.90;;;;;;5059531;28;20231;-93
2022/05/05 01:02:17;;;;;;;4.27;1.40;;;19.60;99.90;;;;;;5059745;28;20712;-93
2022/05/05 01:04:49;;;;;;;4.07;1.30;;;19.40;99.90;;;;;;5060256;28;20226;-92
2022/05/05 01:07:23;;;;;;;2.17;1.33;;;19.40;99.90;;;;;;5065293;28;20215;-94
2022/05/05 01:09:55;;;;;;;4.77;1.70;;;19.40;99.90;;;;;;5076373;28;20194;-93
2022/05/05 01:12:31;;;;;;;5.20;1.20;;;19.30;99.90;;;;;;5076414;28;20211;-94
2022/05/05 01:15:03;;;;;;;3.73;1.47;;;19.20;99.90;;;;;;5077153;28;20218;-90
2022/05/05 01:17:36;;;;;;;5.80;1.57;;;19.10;99.90;;;;;;5093064;28;20192;-90
2022/05/05 01:20:15;;;;;;;6.03;1.53;;;19.00;99.90;;;;;;5097126;28;20192;-92
2022/05/05 01:22:49;;;;;;;3.07;1.57;;;19.00;99.90;;;;;;5096889;28;20235;-92
2022/05/05 01:28:14;;;;;;;2.90;1.40;;;18.80;99.90;;;;;;6020406;22;20198;-93
2022/05/05 01:30:55;;;;;;;4.53;1.87;;;18.70;99.90;;;;;;5054440;28;20197;-90
2022/05/05 01:36:11;;;;;;;4.53;1.50;;;18.70;99.90;;;;;;5428492;22;20246;-92
2022/05/05 01:38:50;;;;;;;4.03;1.27;;;18.60;99.90;;;;;;5172666;22;21439;-91
2022/05/05 01:41:22;;;;;;;3.73;1.40;;;18.60;99.90;;;;;;5036329;28;20233;-90
2022/05/05 01:43:54;;;;;;;4.40;2.00;;;18.40;99.90;;;;;;5037053;28;20244;-91
2022/05/05 01:46:26;;;;;;;3.10;1.50;;;18.30;99.90;;;;;;5037682;28;20186;-91
2022/05/05 01:48:57;;;;;;;3.13;1.77;;;18.20;99.90;;;;;;5036866;28;20189;-91
2022/05/05 01:51:29;;;;;;;4.23;1.60;;;18.10;99.90;;;;;;5036380;28;20208;-91
2022/05/05 01:54:02;;;;;;;3.97;1.47;;;18.00;99.90;;;;;;5036846;28;20523;-91
2022/05/05 01:56:34;;;;;;;4.83;1.90;;;18.00;99.90;;;;;;5036162;28;20205;-91
2022/05/05 01:59:07;;;;;;;4.70;2.00;;;18.00;99.90;;;;;;5036893;28;20204;-91
2022/05/05 02:01:49;;;;;;;4.83;2.00;;;17.90;99.90;;;;;;5034901;28;20237;-92
2022/05/05 02:04:26;;;;;;;2.80;2.07;;;17.70;99.90;;;;;;5036879;28;20308;-92
2022/05/05 02:09:43;;;;;;;5.37;2.80;;;17.70;99.90;;;;;;5170212;22;20259;-91
2022/05/05 02:12:16;;;;;;;4.77;2.40;;;17.60;99.90;;;;;;5044522;28;20201;-92
2022/05/05 02:14:48;;;;;;;4.20;2.27;;;17.60;99.90;;;;;;5044555;28;20209;-92
2022/05/05 02:17:20;;;;;;;5.93;2.37;;;17.50;99.90;;;;;;5040278;28;20232;-94
2022/05/05 02:19:51;;;;;;;4.53;2.50;;;17.40;99.90;;;;;;5040219;28;20217;-92
2022/05/05 02:22:24;;;;;;;5.00;2.13;;;17.40;99.90;;;;;;5052071;28;20261;-92
2022/05/05 02:25:00;;;;;;;5.37;2.37;;;17.30;99.90;;;;;;5046901;28;20604;-92
2022/05/05 02:27:32;;;;;;;6.10;2.77;;;17.10;99.90;;;;;;5042341;28;20227;-92
2022/05/05 02:30:03;;;;;;;4.60;2.23;;;17.00;99.90;;;;;;5039956;28;20221;-92
2022/05/05 02:32:34;;;;;;;4.70;2.40;;;17.00;99.90;;;;;;5037397;28;20224;-92
2022/05/05 02:35:07;;;;;;;5.20;2.40;;;16.90;99.90;;;;;;5019123;28;20209;-92
2022/05/05 02:40:33;;;;;;;4.43;2.23;;;16.60;99.90;;;;;;5019510;28;20244;-91
2022/05/05 02:43:04;;;;;;;4.53;2.33;;;16.50;99.90;;;;;;5021039;28;20289;-92
2022/05/05 02:45:36;;;;;;;5.57;2.57;;;16.30;99.90;;;;;;5017903;28;20244;-92
2022/05/05 02:48:10;;;;;;;7.60;2.60;;;16.10;99.90;;;;;;5018597;28;20212;-92
2022/05/05 02:50:42;;;;;;;4.97;2.47;;;16.00;99.90;;;;;;5017710;28;20255;-93
2022/05/05 02:56:01;;;;;;;6.83;2.30;;;15.70;99.90;;;;;;5021725;28;20210;-92
2022/05/05 02:58:33;;;;;;;4.93;2.87;;;15.50;99.90;;;;;;5020305;28;20229;-92
2022/05/05 03:01:05;;;;;;;5.03;2.57;;;15.40;99.90;;;;;;5022361;28;20212;-93
2022/05/05 03:03:38;;;;;;;8.77;2.63;;;15.30;99.90;;;;;;5031920;28;20229;-92
2022/05/05 03:06:09;;;;;;;6.83;2.80;;;15.20;99.90;;;;;;5041806;28;20217;-92
2022/05/05 03:08:41;;;;;;;7.40;2.90;;;15.20;99.90;;;;;;5040907;28;20271;-89
2022/05/05 03:11:15;;;;;;;5.97;2.37;;;15.10;99.90;;;;;;5042231;28;20268;-89
2022/05/05 03:13:49;;;;;;;6.17;2.73;;;15.00;99.90;;;;;;5049515;28;20204;-91
2022/05/05 03:16:21;;;;;;;6.37;2.40;;;15.00;99.90;;;;;;5055350;28;20212;-91
2022/05/05 03:18:53;;;;;;;7.90;2.37;;;15.00;99.90;;;;;;5055816;28;20213;-91
2022/05/05 03:21:30;;;;;;;6.03;2.53;;;14.90;99.90;;;;;;5055383;28;20197;-90
2022/05/05 03:24:05;;;;;;;12.00;2.80;;;14.90;99.90;;;;;;5045225;28;20235;-90
2022/05/05 03:26:50;;;;;;;6.40;2.77;;;14.80;99.90;;;;;;5046201;28;20194;-91
2022/05/05 03:29:27;;;;;;;7.17;2.87;;;14.60;99.90;;;;;;5033590;28;20292;-91
2022/05/05 03:31:59;;;;;;;10.13;2.97;;;14.60;99.90;;;;;;5035581;28;20225;-91
2022/05/05 03:34:39;;;;;;;9.23;2.80;;;14.60;99.90;;;;;;5032429;28;20213;-92
2022/05/05 03:37:13;;;;;;;5.63;2.53;;;14.60;99.90;;;;;;5034526;28;20259;-91
2022/05/05 03:39:52;;;;;;;5.60;2.70;;;14.50;99.90;;;;;;5031736;28;20209;-91
2022/05/05 03:42:28;;;;;;;7.83;3.00;;;14.50;99.90;;;;;;5029447;28;20206;-90
2022/05/05 03:45:00;;;;;;;5.37;2.43;;;14.40;99.90;;;;;;5029163;28;20260;-91
2022/05/05 03:47:31;;;;;;;5.77;3.17;;;14.40;99.90;;;;;;5035250;28;20256;-90
2022/05/05 03:50:03;;;;;;;4.00;2.10;;;14.30;99.90;;;;;;5035755;28;20198;-90
2022/05/05 03:52:38;;;;;;;7.00;3.20;;;14.20;99.90;;;;;;5035514;28;20205;-88
2022/05/05 03:55:11;;;;;;;7.43;2.80;;;14.20;99.90;;;;;;5037732;28;20212;-91
2022/05/05 03:57:48;;;;;;;5.13;2.57;;;14.10;99.90;;;;;;5033757;28;20213;-90
2022/05/05 04:00:21;;;;;;;5.57;3.07;;;14.20;99.90;;;;;;5036501;28;20209;-91
2022/05/05 04:05:38;;;;;;;4.13;2.30;;;14.10;99.90;;;;;;5058262;28;20229;-90
2022/05/05 04:08:12;;;;;;;9.33;2.80;;;14.00;99.90;;;;;;5056746;28;20223;-91
2022/05/05 04:10:43;;;;;;;7.03;2.53;;;14.00;99.90;;;;;;5055180;28;20185;-91
2022/05/05 04:13:19;;;;;;;6.40;3.00;;;14.00;99.90;;;;;;5056777;28;20197;-89
2022/05/05 04:15:50;;;;;;;4.20;2.43;;;13.90;99.90;;;;;;5053136;28;20296;-90
2022/05/05 04:18:23;;;;;;;7.70;3.30;;;13.90;99.90;;;;;;5051945;28;20204;-92
2022/05/05 04:20:54;;;;;;;4.83;2.50;;;13.80;99.90;;;;;;5055516;28;20240;-91
2022/05/05 04:23:26;;;;;;;5.87;2.73;;;13.80;99.90;;;;;;5053079;28;20205;-91
2022/05/05 04:26:16;;;;;;;8.40;2.87;;;13.70;99.90;;;;;;5052628;28;20207;-92
2022/05/05 04:28:53;;;;;;;3.97;2.50;;;13.60;99.90;;;;;;5051355;28;20216;-91
2022/05/05 04:31:29;;;;;;;4.87;3.10;;;13.60;99.90;;;;;;5040355;28;20204;-91
2022/05/05 04:34:00;;;;;;;5.00;3.10;;;13.50;99.90;;;;;;5039437;28;20204;-90
2022/05/05 04:36:35;;;;;;;7.17;3.20;;;13.30;99.90;;;;;;5041430;28;20212;-91
2022/05/05 04:39:06;;;;;;;9.00;3.13;;;13.30;99.90;;;;;;5042182;28;20236;-91
2022/05/05 04:41:37;;;;;;;5.60;3.17;;;13.30;99.90;;;;;;5040999;28;20209;-91
2022/05/05 04:44:11;;;;;;;5.30;2.73;;;13.20;99.90;;;;;;5040551;28;20640;-90
2022/05/05 04:46:42;;;;;;;5.63;3.00;;;13.10;99.90;;;;;;5039910;28;20240;-91
2022/05/05 04:49:14;;;;;;;4.57;2.87;;;13.10;99.90;;;;;;5037495;28;20254;-91
2022/05/05 04:51:46;;;;;;;8.00;3.23;;;13.00;99.90;;;;;;5038902;28;20205;-90
2022/05/05 04:54:17;;;;;;;6.43;3.40;;;13.00;99.90;;;;;;5039166;28;20659;-90
2022/05/05 04:56:49;;;;;;;5.27;2.77;;;13.00;99.90;;;;;;5040781;28;20205;-90
2022/05/05 04:59:23;;;;;;;4.87;3.30;;;13.00;99.90;;;;;;5037906;28;20240;-91
2022/05/05 05:01:55;;;;;;;6.03;3.10;;;12.90;99.90;;;;;;5042090;28;20232;-90
2022/05/05 05:04:27;;;;;;;7.90;3.70;;;12.90;99.90;;;;;;5042175;28;20237;-91
2022/05/05 05:06:58;;;;;;;7.57;3.40;;;12.90;99.90;;;;;;5040064;28;20233;-92
2022/05/05 05:09:29;;;;;;;6.83;3.47;;;12.90;99.90;;;;;;5041463;28;20618;-91
2022/05/05 05:12:00;;;;;;;6.87;3.43;;;12.80;99.90;;;;;;5039593;28;20362;-91
2022/05/05 05:14:33;;;;;;;7.20;2.90;;;12.90;99.90;;;;;;5061404;28;20201;-92
2022/05/05 05:17:05;;;;;;;6.23;3.00;;;12.80;99.90;;;;;;5069320;28;20209;-91
2022/05/05 05:19:37;;;;;;;6.70;3.43;;;12.90;99.90;;;;;;5073793;28;20220;-91
2022/05/05 05:22:08;;;;;;;6.23;3.23;;;12.90;99.90;;;;;;5076132;28;20223;-91
2022/05/05 05:24:39;;;;;;;7.70;3.40;;;12.80;99.90;;;;;;5066088;28;20284;-92
2022/05/05 05:27:10;;;;;;;5.60;2.93;;;12.80;99.90;;;;;;5044952;28;20255;-92
2022/05/05 05:29:44;;;;;;;3.67;3.07;;;12.80;99.90;;;;;;5037200;28;20209;-92
2022/05/05 05:32:15;;;;;;;5.80;3.03;;;12.80;99.90;;;;;;5038240;28;20279;-92
2022/05/05 05:34:46;;;;;;;6.63;3.40;;;12.80;99.90;;;;;;5037298;28;20274;-92
2022/05/05 05:37:17;;;;;;;6.47;4.20;;;12.70;99.90;;;;;;5037782;28;20232;-92
2022/05/05 05:39:48;;;;;;;5.27;3.37;;;12.70;99.90;;;;;;5037400;28;20307;-92
2022/05/05 05:42:19;;;;;;;6.87;3.83;;;12.60;99.90;;;;;;5039990;28;20216;-92
2022/05/05 05:44:52;;;;;;;7.67;3.20;;;12.60;99.90;;;;;;5037533;28;20228;-92
2022/05/05 05:47:24;;;;;;;7.50;3.50;;;12.60;99.90;;;;;;5037002;28;20643;-91
2022/05/05 05:49:55;;;;;;;8.30;3.93;;;12.70;99.90;;;;;;5036875;28;20289;-89
2022/05/05 05:52:26;;;;;;;7.03;3.30;;;12.70;99.90;;;;;;5041325;28;20217;-89
2022/05/05 05:55:02;;;;;;;5.63;3.27;;;12.60;99.90;;;;;;5038108;28;20303;-90
2022/05/05 05:57:34;;;;;;;6.67;3.27;;;12.50;99.90;;;;;;5037537;28;20258;-90
2022/05/05 06:00:09;;;;;;;5.57;3.23;;;12.50;99.90;;;;;;5037751;28;20259;-91
2022/05/05 06:05:28;;;;;;;4.93;3.63;;;12.50;99.90;;;;;;5055605;28;20227;-90
2022/05/05 06:08:00;;;;;;;5.00;3.17;;;12.50;99.90;;;;;;5055163;28;20189;-90
2022/05/05 06:10:33;;;;;;;6.07;3.57;;;12.50;99.90;;;;;;5048437;28;20216;-90
2022/05/05 06:13:06;;;;;;;6.30;3.00;;;12.50;99.90;;;;;;5045542;28;20209;-90
2022/05/05 06:15:40;;;;;;;5.40;3.17;;;12.50;99.90;;;;;;5047825;28;20201;-90
2022/05/05 06:18:11;;;;;;;5.53;3.20;;;12.50;99.90;;;;;;5048689;28;20208;-90
2022/05/05 06:20:42;;;;;;;5.07;3.57;;;12.30;99.90;;;;;;5052810;28;20209;-89
2022/05/05 06:23:13;;;;;;;6.83;3.03;;;12.30;99.90;;;;;;5053450;28;20217;-90
2022/05/05 06:25:47;;;;;;;4.80;3.20;;;12.30;99.90;;;;;;5028154;28;20242;-90
2022/05/05 06:28:18;;;;;;;9.83;3.63;;;12.30;99.90;;;;;;5026074;28;20229;-90
2022/05/05 06:30:52;;;;;;;6.33;3.37;;;12.30;99.90;;;;;;5024829;28;20229;-90
2022/05/05 06:33:23;;;;;;;7.23;3.17;;;12.20;99.90;;;;;;5022563;28;20237;-91
2022/05/05 06:35:59;;;;;;;6.00;3.43;;;12.20;99.90;;;;;;5027070;28;20228;-91
2022/05/05 06:38:30;;;;;;;4.97;3.10;;;12.10;99.90;;;;;;5022645;28;20209;-90
2022/05/05 06:41:01;;;;;;;5.63;2.70;;;12.10;99.90;;;;;;5022259;28;20209;-90
2022/05/05 06:43:32;;;;;;;5.17;3.03;;;12.10;99.90;;;;;;5021902;28;20259;-91
2022/05/05 06:46:07;;;;;;;5.93;3.20;;;12.00;99.90;;;;;;5022780;28;20653;-89
2022/05/05 06:48:38;;;;;;;4.87;2.60;;;12.00;99.90;;;;;;5024272;28;20213;-90
2022/05/05 06:51:09;;;;;;;3.83;2.70;;;12.10;99.90;;;;;;5021312;28;20202;-91
2022/05/05 06:53:41;;;;;;;6.37;2.93;;;12.10;99.90;;;;;;5021215;28;20216;-90
2022/05/05 06:56:13;;;;;;;3.93;2.60;;;12.10;99.90;;;;;;5020886;28;20252;-91
2022/05/05 06:58:44;;;;;;;4.07;3.03;;;12.00;99.90;;;;;;5004346;28;20232;-90
2022/05/05 07:06:53;;;;;;;5.77;3.50;;;12.00;99.90;;;;;;5041394;28;20314;-90
2022/05/05 07:12:23;;;;;;;5.00;2.67;;;12.00;99.90;;;;;;5017735;28;20229;-89
2022/05/05 07:14:56;;;;;;;4.37;2.97;;;12.00;99.90;;;;;;5032575;28;20675;-90
2022/05/05 07:17:29;;;;;;;5.03;2.60;;;12.10;99.90;;;;;;5044197;28;20229;-90
2022/05/05 07:20:01;;;;;;;4.40;2.53;;;12.10;99.90;;;;;;5040091;28;20205;-90
2022/05/05 07:22:32;;;;;;;4.33;2.30;;;12.00;99.90;;;;;;5038747;28;20232;-91
2022/05/05 07:25:05;;;;;;;6.00;2.40;;;12.00;99.90;;;;;;5039958;28;20316;-90
2022/05/05 07:27:36;;;;;;;6.90;2.20;;;12.00;99.90;;;;;;5038562;28;20209;-91
2022/05/05 07:30:09;;;;;;;3.23;2.30;;;12.10;99.90;;;;;;5038564;28;20209;-91
2022/05/05 07:32:43;;;;;;;4.23;1.90;;;12.00;99.90;;;;;;5039572;28;20205;-90
2022/05/05 07:35:14;;;;;;;3.70;2.40;;;12.00;99.90;;;;;;5039629;28;20200;-91
2022/05/05 07:37:46;;;;;;;4.77;2.40;;;11.90;99.90;;;;;;5054903;28;20216;-90
2022/05/05 07:40:20;;;;;;;4.93;2.40;;;11.80;99.90;;;;;;5053835;28;20229;-91
2022/05/05 07:51:08;;;;;;;5.83;2.10;;;11.60;99.90;;;;;;5045532;28;20231;-90
2022/05/05 07:53:39;;;;;;;4.80;2.17;;;11.60;99.90;;;;;;5049287;28;20205;-91
2022/05/05 07:56:14;;;;;;;3.67;2.03;;;11.60;99.90;;;;;;5050103;28;20496;-92
2022/05/05 07:58:45;;;;;;;2.70;1.80;;;11.60;99.90;;;;;;5055200;28;20227;-92
2022/05/05 08:01:18;;;;;;;7.57;1.97;;;11.60;99.90;;;;;;5052509;28;20220;-91
2022/05/05 08:03:51;;;;;;;4.47;1.70;;;11.60;99.90;;;;;;5044366;28;20654;-91
2022/05/05 08:06:26;;;;;;;3.80;1.87;;;11.60;99.90;;;;;;5039450;28;20653;-91
2022/05/05 08:08:58;;;;;;;4.63;2.03;;;11.50;99.90;;;;;;5073542;22;20244;-91
2022/05/05 08:11:30;;;;;;;3.23;1.93;;;11.50;99.90;;;;;;5039406;28;20205;-90
2022/05/05 08:14:04;;;;;;;4.10;2.10;;;11.50;99.90;;;;;;5038999;28;20270;-91
2022/05/05 08:16:36;;;;;;;5.07;2.20;;;11.50;99.90;;;;;;5037632;28;20243;-90
2022/05/05 08:19:08;;;;;;;3.10;2.10;;;11.40;99.90;;;;;;5038150;28;20205;-90
2022/05/05 08:21:41;;;;;;;5.77;2.37;;;11.30;99.90;;;;;;5038783;28;20255;-90
2022/05/05 08:29:52;;;;;;;3.20;2.33;;;11.30;99.90;;;;;;4994340;28;20296;-91
2022/05/05 08:32:24;;;;;;;4.17;2.30;;;11.30;99.90;;;;;;5019248;28;20216;-91
2022/05/05 08:34:55;;;;;;;3.87;1.90;;;11.30;99.90;;;;;;5018863;28;20224;-91
2022/05/05 08:37:29;;;;;;;4.03;2.20;;;11.30;99.90;;;;;;5019854;28;20753;-92
2022/05/05 08:40:01;;;;;;;3.87;1.93;;;11.30;99.90;;;;;;5037477;28;20209;-90
2022/05/05 08:42:33;;;;;;;6.17;2.40;;;11.30;99.90;;;;;;5037272;28;20205;-91
2022/05/05 08:45:04;;;;;;;4.27;2.40;;;11.30;99.90;;;;;;5026181;28;20662;-90
2022/05/05 08:47:35;;;;;;;4.33;2.13;;;11.20;99.90;;;;;;5018068;28;20245;-91
2022/05/05 08:50:11;;;;;;;3.97;2.20;;;11.10;99.90;;;;;;5018652;28;20301;-90
2022/05/05 08:52:54;;;;;;;5.07;2.03;;;11.10;99.90;;;;;;5018062;28;20228;-91
2022/05/05 08:55:25;;;;;;;5.03;2.00;;;11.20;99.90;;;;;;5023956;28;20201;-91
2022/05/05 08:57:56;;;;;;;5.00;2.00;;;11.20;99.90;;;;;;5017595;28;20201;-90
2022/05/05 09:00:28;;;;;;;3.77;2.20;;;11.20;99.90;;;;;;5018306;28;20292;-90
2022/05/05 09:03:00;;;;;;;7.37;2.63;;;11.20;99.90;;;;;;5021985;28;20219;-91
2022/05/05 09:05:50;;;;;;;3.93;2.23;;;11.20;99.90;;;;;;5037609;28;20631;-91
2022/05/05 09:08:38;;;;;;;4.43;2.13;;;11.20;99.90;;;;;;5036753;28;20288;-90
2022/05/05 09:11:10;;;;;;;5.13;2.23;;;11.10;99.90;;;;;;5037468;28;20609;-91
2022/05/05 09:13:41;;;;;;;8.60;2.47;;;11.10;99.90;;;;;;5037216;28;20236;-91
2022/05/05 09:16:24;;;;;;;4.30;2.40;;;11.10;99.90;;;;;;5038424;28;20213;-90
2022/05/05 09:18:57;;;;;;;5.73;3.03;;;11.00;99.90;;;;;;5051654;28;20291;-90
2022/05/05 09:21:38;;;;;;;4.63;2.40;;;10.90;99.90;;;;;;5020083;28;20299;-90
2022/05/05 09:27:15;;;;;;;6.27;2.50;;;10.80;99.90;;;;;;5037732;28;20229;-90
2022/05/05 09:30:05;;;;;;;7.03;2.70;;;10.70;99.90;;;;;;5037142;28;20239;-90
2022/05/05 09:32:38;;;;;;;4.63;2.40;;;10.60;99.90;;;;;;5033010;28;20231;-90
2022/05/05 09:35:13;;;;;;;3.87;2.90;;;10.50;99.90;;;;;;5037567;28;20244;-91
2022/05/05 09:37:48;;;;;;;5.53;3.07;;;10.50;99.90;;;;;;5038877;28;20823;-90
2022/05/05 09:40:23;;;;;;;7.50;2.97;;;10.50;99.90;;;;;;5037496;28;20262;-89
2022/05/05 09:42:55;;;;;;;5.53;2.83;;;10.50;99.90;;;;;;5037336;28;20295;-90
2022/05/05 09:45:31;;;;;;;5.13;2.77;;;10.40;99.90;;;;;;5036840;28;20631;-90
2022/05/05 09:48:04;;;;;;;7.73;3.00;;;10.40;99.90;;;;;;5036054;28;20264;-90
2022/05/05 09:50:38;;;;;;;5.20;2.80;;;10.50;99.90;;;;;;5036956;28;20686;-91
2022/05/05 09:58:56;;;;;;;4.93;3.03;;;10.40;99.90;;;;;;5036586;28;20227;-90
2022/05/05 10:01:31;;;;;;;7.97;2.80;;;10.40;99.90;;;;;;5036197;28;20236;-91
2022/05/05 10:04:05;;;;;;;5.90;2.80;;;10.40;99.90;;;;;;5036603;28;20215;-90
2022/05/05 10:06:37;;;;;;;7.73;3.30;;;10.40;99.90;;;;;;5037113;28;20259;-90
2022/05/05 10:09:09;;;;;;;7.17;3.17;;;10.30;99.90;;;;;;5035815;28;20294;-90
2022/05/05 10:11:43;;;;;;;5.73;2.90;;;10.30;99.90;;;;;;5036920;28;20681;-89
2022/05/05 10:14:16;;;;;;;6.70;3.27;;;10.20;99.90;;;;;;5036914;28;20225;-90
2022/05/05 10:16:47;;;;;;;8.87;3.13;;;10.20;99.90;;;;;;5035747;28;20729;-90
2022/05/05 10:19:18;;;;;;;5.23;3.03;;;10.10;99.90;;;;;;5037967;28;20208;-90
2022/05/05 10:21:56;;;;;;;8.83;3.27;;;10.10;99.90;;;;;;5037535;28;20239;-90
2022/05/05 10:24:30;;;;;;;6.70;3.10;;;10.10;99.90;;;;;;5019676;28;20193;-89
2022/05/05 10:27:05;;;;;;;3.63;2.33;;;10.10;99.90;;;;;;5034467;28;20235;-90
2022/05/05 10:29:40;;;;;;;3.93;2.20;;;10.00;99.90;;;;;;5050757;28;20209;-90
2022/05/05 10:32:15;;;;;;;5.30;2.40;;;10.10;99.90;;;;;;5053558;28;20212;-90
2022/05/05 10:34:47;;;;;;;3.90;2.30;;;10.10;99.90;;;;;;5044468;28;20232;-89
2022/05/05 10:37:22;;;;;;;3.17;2.03;;;10.00;99.90;;;;;;5039235;28;20232;-91
2022/05/05 10:45:19;;;;;;;2.70;2.10;;;10.20;99.90;;;;;;5040702;28;20274;-92
2022/05/05 10:48:34;;;;;;;3.70;2.10;;;10.10;99.90;;;;;;5037247;28;20264;-91
2022/05/05 10:51:09;;;;;;;4.90;2.30;;;10.10;99.90;;;;;;5047560;28;20205;-89
2022/05/05 10:53:42;;;;;;;2.20;2.00;;;10.10;99.90;;;;;;5052101;28;20212;-90
2022/05/05 10:56:31;;;;;;;4.57;2.23;;;10.20;99.90;;;;;;5050175;28;20201;-89
2022/05/05 10:59:05;;;;;;;4.47;2.10;;;10.20;99.90;;;;;;5040441;28;20236;-89
2022/05/05 11:02:04;;;;;;;4.27;2.00;;;10.30;99.90;;;;;;5041019;28;20558;-91
2022/05/05 11:04:36;;;;;;;5.47;2.87;;;10.30;99.90;;;;;;5039627;28;20205;-90
2022/05/05 11:07:32;;;;;;;5.97;2.77;;;10.30;99.90;;;;;;5036972;28;20243;-90
2022/05/05 11:10:03;;;;;;;5.17;2.50;;;10.30;99.90;;;;;;5038785;28;20205;-89
2022/05/05 11:12:36;;;;;;;7.03;2.73;;;10.20;99.90;;;;;;5038412;28;20651;-89
2022/05/05 11:23:52;;;;;;;5.90;2.57;;;10.30;99.90;;;;;;5039451;28;20209;-89
2022/05/05 11:26:24;;;;;;;7.97;3.13;;;10.30;99.90;;;;;;5039094;28;20251;-89
2022/05/05 11:29:01;;;;;;;6.10;2.57;;;10.20;99.90;;;;;;5040103;28;20709;-89
2022/05/05 11:31:32;;;;;;;5.73;2.63;;;10.20;99.90;;;;;;5044748;28;20193;-90
2022/05/05 11:34:06;;;;;;;5.57;2.60;;;10.20;99.90;;;;;;5029394;28;20236;-89
2022/05/05 11:36:41;;;;;;;4.93;2.90;;;10.20;99.90;;;;;;5020822;28;20268;-89
2022/05/05 11:39:14;;;;;;;5.27;2.73;;;10.20;99.90;;;;;;5018852;28;20224;-88
2022/05/05 11:41:45;;;;;;;5.13;3.07;;;10.20;99.90;;;;;;5022853;28;20547;-90
2022/05/05 11:44:17;;;;;;;8.63;2.80;;;10.30;99.90;;;;;;5027290;28;20322;-89
2022/05/05 11:46:50;;;;;;;4.73;2.37;;;10.20;99.90;;;;;;5059952;28;20208;-91
2022/05/05 11:49:24;;;;;;;3.40;2.50;;;10.20;99.90;;;;;;5057998;28;20236;-90
2022/05/05 11:52:00;;;;;;;4.00;2.67;;;10.10;99.90;;;;;;5058320;28;20204;-90
2022/05/05 11:54:33;;;;;;;4.57;2.70;;;10.10;99.90;;;;;;5059247;28;20236;-90
2022/05/05 11:57:04;;;;;;;4.73;2.70;;;10.10;99.90;;;;;;5058621;28;20204;-90
2022/05/05 12:02:25;;;;;;;3.10;2.17;;;10.10;99.90;;;;;;5058770;28;20208;-90
2022/05/05 12:05:00;;;;;;;5.80;2.37;;;10.10;99.90;;;;;;5019897;28;20209;-90
2022/05/05 12:07:32;;;;;;;4.87;2.10;;;10.10;99.90;;;;;;5018718;28;20217;-90
2022/05/05 12:10:08;;;;;;;5.37;2.30;;;10.20;99.90;;;;;;5019313;28;20213;-90
2022/05/05 12:12:39;;;;;;;4.27;2.70;;;10.10;99.90;;;;;;5019139;28;20221;-90
2022/05/05 12:15:12;;;;;;;8.50;2.63;;;10.10;99.90;;;;;;5020001;28;20217;-90
2022/05/05 12:17:49;;;;;;;4.40;2.33;;;10.10;99.90;;;;;;5018928;28;20248;-89
2022/05/05 12:20:23;;;;;;;3.77;2.10;;;9.90;99.90;;;;;;5019932;28;20247;-89
2022/05/05 12:23:00;;;;;;;4.20;1.83;;;9.90;99.90;;;;;;5020864;28;20209;-90
2022/05/05 12:25:33;;;;;;;3.87;2.20;;;9.90;99.90;;;;;;5031678;28;20283;-90
2022/05/05 12:28:09;;;;;;;3.70;1.97;;;9.90;99.90;;;;;;5021052;28;20329;-90
2022/05/05 12:30:41;;;;;;;4.60;2.50;;;9.90;99.90;;;;;;5027730;28;20209;-88
2022/05/05 12:33:14;;;;;;;4.67;2.00;;;9.90;99.90;;;;;;5031372;28;20209;-89
2022/05/05 12:35:49;;;;;;;6.27;2.47;;;9.90;99.90;;;;;;5025803;28;20220;-90
2022/05/05 12:38:21;;;;;;;3.23;1.80;;;10.00;99.90;;;;;;5042014;28;20220;-89
2022/05/05 12:41:08;;;;;;;4.10;2.00;;;10.00;99.90;;;;;;5040545;28;20204;-90
2022/05/05 12:43:42;;;;;;;5.03;2.63;;;10.00;99.90;;;;;;5039148;28;20240;-90
2022/05/05 12:46:17;;;;;;;4.27;2.20;;;10.00;99.90;;;;;;5040576;28;20667;-90
2022/05/05 12:48:54;;;;;;;2.00;1.80;;;9.90;99.90;;;;;;5038994;28;20228;-90
2022/05/05 12:51:34;;;;;;;3.10;1.80;;;9.90;99.90;;;;;;5039204;28;20336;-90
2022/05/05 12:59:57;;;;;;;3.07;1.97;;;9.70;99.90;;;;;;5052897;28;20207;-90
2022/05/05 13:02:29;;;;;;;3.27;1.70;;;9.70;99.90;;;;;;5040529;28;20204;-89
2022/05/05 13:05:01;;;;;;;3.30;1.63;;;9.70;99.90;;;;;;5029730;28;20201;-89
2022/05/05 13:07:36;;;;;;;3.50;2.10;;;9.70;99.90;;;;;;5030257;28;20220;-91
2022/05/05 13:10:08;;;;;;;4.60;2.10;;;9.70;99.90;;;;;;5022574;28;20300;-90
2022/05/05 13:12:39;;;;;;;4.70;2.30;;;9.70;99.90;;;;;;5021972;28;20240;-89
2022/05/05 13:15:12;;;;;;;3.57;2.57;;;9.80;99.90;;;;;;5019297;28;20209;-90
2022/05/05 13:17:45;;;;;;;2.93;2.20;;;9.80;99.90;;;;;;5019889;28;20229;-90
2022/05/05 13:20:17;;;;;;;4.00;2.43;;;9.90;99.90;;;;;;5020147;28;20231;-90
2022/05/05 13:22:50;;;;;;;3.90;2.47;;;9.90;99.90;;;;;;5019257;28;20268;-90
2022/05/05 13:25:21;;;;;;;3.83;2.20;;;9.90;99.90;;;;;;5018490;28;20300;-89
2022/05/05 13:27:53;;;;;;;3.30;2.20;;;10.00;99.90;;;;;;5020199;28;20229;-90
2022/05/05 13:30:24;;;;;;;3.77;2.20;;;10.00;99.90;;;;;;5019984;28;20213;-91
2022/05/05 13:32:55;;;;;;;3.27;2.50;;;10.00;99.90;;;;;;5022047;28;20232;-90
2022/05/05 13:35:27;;;;;;;4.60;2.57;;;10.10;99.90;;;;;;5040422;28;20228;-89
2022/05/05 13:38:00;;;;;;;6.20;2.43;;;10.10;99.90;;;;;;5049914;28;20231;-88
2022/05/05 13:40:31;;;;;;;3.97;2.30;;;10.20;99.90;;;;;;5049721;28;20255;-89
2022/05/05 13:43:03;;;;;;;4.23;2.10;;;10.10;99.90;;;;;;5038922;28;20235;-89
2022/05/05 13:45:34;;;;;;;5.87;2.60;;;10.20;99.90;;;;;;5036346;28;20247;-89
2022/05/05 13:48:06;;;;;;;5.03;2.07;;;10.10;99.90;;;;;;5036536;28;20208;-89
2022/05/05 13:50:39;;;;;;;3.53;2.83;;;10.00;99.90;;;;;;5037266;28;20232;-89
2022/05/05 13:53:12;;;;;;;4.60;2.13;;;9.90;99.90;;;;;;5037726;28;20598;-90
2022/05/05 13:55:45;;;;;;;3.70;2.37;;;9.90;99.90;;;;;;5037446;28;20217;-89
2022/05/05 13:58:16;;;;;;;7.37;2.27;;;10.00;99.90;;;;;;5035859;28;20205;-89
2022/05/05 14:00:48;;;;;;;3.77;2.33;;;10.00;99.90;;;;;;5036610;28;20640;-89
2022/05/05 14:03:19;;;;;;;3.57;2.33;;;10.10;99.90;;;;;;5037243;28;20634;-90
2022/05/05 14:05:50;;;;;;;5.93;2.37;;;9.90;99.90;;;;;;5037318;28;20675;-89
2022/05/05 14:14:08;;;;;;;3.83;2.23;;;10.00;99.90;;;;;;5012801;28;20212;-90
2022/05/05 14:16:39;;;;;;;4.27;2.33;;;10.00;99.90;;;;;;5036785;28;20287;-90
2022/05/05 14:19:11;;;;;;;4.70;2.57;;;10.00;99.90;;;;;;5036490;28;20296;-90
2022/05/05 14:21:42;;;;;;;4.60;2.17;;;9.90;99.90;;;;;;5037647;28;20287;-90
2022/05/05 14:24:16;;;;;;;6.20;2.67;;;9.80;99.90;;;;;;5042692;28;20228;-90
2022/05/05 14:26:49;;;;;;;4.73;2.20;;;9.90;99.90;;;;;;5038381;28;20236;-90
2022/05/05 14:29:20;;;;;;;4.57;2.43;;;9.90;99.90;;;;;;5036301;28;20225;-89
2022/05/05 14:31:51;;;;;;;4.40;2.23;;;9.90;99.90;;;;;;5042055;28;20231;-89
2022/05/05 14:34:22;;;;;;;3.27;2.40;;;9.70;99.90;;;;;;5037306;28;20209;-89
2022/05/05 14:36:53;;;;;;;4.27;2.60;;;9.80;99.90;;;;;;5036165;28;20212;-90
2022/05/05 14:39:32;;;;;;;3.97;2.10;;;9.90;99.90;;;;;;5044277;28;20205;-90
2022/05/05 14:42:15;;;;;;;4.47;2.60;;;9.80;99.90;;;;;;5032500;28;20209;-90
2022/05/05 14:44:51;;;;;;;3.97;2.27;;;9.70;99.90;;;;;;5049709;28;20683;-90